sensor_id;sensor_type;location;lat;lon;timestamp;pressure;altitude;pressure_sealevel;temperature;humidity
20630;BME280;17386;43.846;25.950;2023-09-07T00:00:29;101823.88;;;22.91;54.92
20630;BME280;17386;43.846;25.950;2023-09-07T00:02:55;101821.28;;;22.89;54.93
20630;BME280;17386;43.846;25.950;2023-09-07T00:05:20;101818.56;;;22.89;55.06
20630;BME280;17386;43.846;25.950;2023-09-07T00:07:46;101812.50;;;22.86;55.29
20630;BME280;17386;43.846;25.950;2023-09-07T00:10:11;101825.09;;;22.87;55.16
20630;BME280;17386;43.846;25.950;2023-09-07T00:12:37;101825.25;;;22.84;55.16
20630;BME280;17386;43.846;25.950;2023-09-07T00:15:05;101828.94;;;22.83;55.21
20630;BME280;17386;43.846;25.950;2023-09-07T00:17:31;101827.31;;;22.80;55.38
20630;BME280;17386;43.846;25.950;2023-09-07T00:19:57;101816.78;;;22.76;55.55
20630;BME280;17386;43.846;25.950;2023-09-07T00:22:23;101817.22;;;22.70;55.60
20630;BME280;17386;43.846;25.950;2023-09-07T00:24:50;101830.75;;;22.70;55.49
20630;BME280;17386;43.846;25.950;2023-09-07T00:27:16;101831.53;;;22.72;55.62
20630;BME280;17386;43.846;25.950;2023-09-07T00:29:41;101834.34;;;22.70;55.78
20630;BME280;17386;43.846;25.950;2023-09-07T00:32:07;101832.91;;;22.64;55.95
20630;BME280;17386;43.846;25.950;2023-09-07T00:34:33;101826.75;;;22.62;56.00
20630;BME280;17386;43.846;25.950;2023-09-07T00:37:00;101832.50;;;22.58;56.12
20630;BME280;17386;43.846;25.950;2023-09-07T00:39:26;101833.56;;;22.55;56.22
20630;BME280;17386;43.846;25.950;2023-09-07T00:41:51;101831.94;;;22.53;56.34
20630;BME280;17386;43.846;25.950;2023-09-07T00:44:16;101831.50;;;22.46;56.61
20630;BME280;17386;43.846;25.950;2023-09-07T00:46:42;101822.38;;;22.47;56.58
20630;BME280;17386;43.846;25.950;2023-09-07T00:49:11;101821.72;;;22.44;56.34
20630;BME280;17386;43.846;25.950;2023-09-07T00:51:36;101813.72;;;22.42;56.31
20630;BME280;17386;43.846;25.950;2023-09-07T00:54:02;101815.78;;;22.38;56.39
20630;BME280;17386;43.846;25.950;2023-09-07T00:56:27;101821.19;;;22.38;56.35
20630;BME280;17386;43.846;25.950;2023-09-07T00:58:53;101806.88;;;22.36;56.24
20630;BME280;17386;43.846;25.950;2023-09-07T01:01:21;101815.53;;;22.29;56.41
20630;BME280;17386;43.846;25.950;2023-09-07T01:03:47;101813.91;;;22.26;56.51
20630;BME280;17386;43.846;25.950;2023-09-07T01:06:17;101808.66;;;22.23;56.59
20630;BME280;17386;43.846;25.950;2023-09-07T01:08:46;101813.03;;;22.26;56.37
20630;BME280;17386;43.846;25.950;2023-09-07T01:11:18;101813.91;;;22.26;56.29
20630;BME280;17386;43.846;25.950;2023-09-07T01:13:45;101820.19;;;22.27;56.27
20630;BME280;17386;43.846;25.950;2023-09-07T01:16:12;101808.78;;;22.22;56.52
20630;BME280;17386;43.846;25.950;2023-09-07T01:18:38;101806.31;;;22.19;56.40
20630;BME280;17386;43.846;25.950;2023-09-07T01:21:07;101803.59;;;22.19;56.68
20630;BME280;17386;43.846;25.950;2023-09-07T01:23:37;101809.41;;;22.13;57.01
20630;BME280;17386;43.846;25.950;2023-09-07T01:26:05;101811.63;;;22.06;56.89
20630;BME280;17386;43.846;25.950;2023-09-07T01:28:30;101808.81;;;22.07;56.99
20630;BME280;17386;43.846;25.950;2023-09-07T01:30:57;101813.22;;;22.10;56.89
20630;BME280;17386;43.846;25.950;2023-09-07T01:33:23;101805.16;;;22.08;56.95
20630;BME280;17386;43.846;25.950;2023-09-07T01:35:48;101815.44;;;22.03;57.25
20630;BME280;17386;43.846;25.950;2023-09-07T01:38:14;101802.75;;;22.04;57.18
20630;BME280;17386;43.846;25.950;2023-09-07T01:40:39;101810.78;;;22.05;57.33
20630;BME280;17386;43.846;25.950;2023-09-07T01:43:04;101804.38;;;22.06;57.15
20630;BME280;17386;43.846;25.950;2023-09-07T01:45:30;101808.06;;;22.05;57.24
20630;BME280;17386;43.846;25.950;2023-09-07T01:47:55;101806.41;;;22.03;57.28
20630;BME280;17386;43.846;25.950;2023-09-07T01:50:20;101810.97;;;22.02;57.32
20630;BME280;17386;43.846;25.950;2023-09-07T01:52:49;101809.44;;;21.98;57.29
20630;BME280;17386;43.846;25.950;2023-09-07T01:55:14;101814.28;;;21.93;57.60
20630;BME280;17386;43.846;25.950;2023-09-07T01:57:40;101814.56;;;21.89;57.72
20630;BME280;17386;43.846;25.950;2023-09-07T02:00:06;101810.25;;;21.86;57.89
20630;BME280;17386;43.846;25.950;2023-09-07T02:02:31;101808.97;;;21.92;57.94
20630;BME280;17386;43.846;25.950;2023-09-07T02:04:57;101805.72;;;21.87;57.96
20630;BME280;17386;43.846;25.950;2023-09-07T02:07:22;101811.00;;;21.88;57.86
20630;BME280;17386;43.846;25.950;2023-09-07T02:09:47;101808.53;;;21.85;57.93
20630;BME280;17386;43.846;25.950;2023-09-07T02:12:13;101812.59;;;21.78;58.12
20630;BME280;17386;43.846;25.950;2023-09-07T02:14:38;101813.66;;;21.75;58.29
20630;BME280;17386;43.846;25.950;2023-09-07T02:17:04;101813.97;;;21.71;58.30
20630;BME280;17386;43.846;25.950;2023-09-07T02:19:30;101820.16;;;21.73;58.41
20630;BME280;17386;43.846;25.950;2023-09-07T02:21:55;101813.97;;;21.71;58.55
20630;BME280;17386;43.846;25.950;2023-09-07T02:24:20;101814.72;;;21.73;58.59
20630;BME280;17386;43.846;25.950;2023-09-07T02:26:46;101815.59;;;21.73;58.75
20630;BME280;17386;43.846;25.950;2023-09-07T02:29:12;101827.28;;;21.74;58.76
20630;BME280;17386;43.846;25.950;2023-09-07T02:31:39;101821.00;;;21.73;58.63
20630;BME280;17386;43.846;25.950;2023-09-07T02:34:04;101815.59;;;21.73;58.49
20630;BME280;17386;43.846;25.950;2023-09-07T02:36:30;101815.50;;;21.75;58.41
20630;BME280;17386;43.846;25.950;2023-09-07T02:38:55;101817.44;;;21.73;58.27
20630;BME280;17386;43.846;25.950;2023-09-07T02:41:20;101821.13;;;21.72;58.30
20630;BME280;17386;43.846;25.950;2023-09-07T02:43:46;101822.09;;;21.71;58.45
20630;BME280;17386;43.846;25.950;2023-09-07T02:46:11;101797.00;;;21.54;58.20
20630;BME280;17386;43.846;25.950;2023-09-07T02:48:37;101807.41;;;21.61;58.22
20630;BME280;17386;43.846;25.950;2023-09-07T02:51:02;101817.94;;;21.65;58.52
20630;BME280;17386;43.846;25.950;2023-09-07T02:53:28;101814.88;;;21.57;58.63
20630;BME280;17386;43.846;25.950;2023-09-07T02:55:53;101820.47;;;21.54;58.71
20630;BME280;17386;43.846;25.950;2023-09-07T02:58:19;101816.13;;;21.51;58.91
20630;BME280;17386;43.846;25.950;2023-09-07T03:00:45;101816.53;;;21.45;59.33
20630;BME280;17386;43.846;25.950;2023-09-07T03:03:11;101809.59;;;21.41;59.25
20630;BME280;17386;43.846;25.950;2023-09-07T03:05:41;101813.25;;;21.40;59.31
20630;BME280;17386;43.846;25.950;2023-09-07T03:08:07;101811.72;;;21.36;59.53
20630;BME280;17386;43.846;25.950;2023-09-07T03:10:35;101818.00;;;21.37;59.49
20630;BME280;17386;43.846;25.950;2023-09-07T03:13:00;101813.63;;;21.34;59.61
20630;BME280;17386;43.846;25.950;2023-09-07T03:15:25;101816.53;;;21.31;59.55
20630;BME280;17386;43.846;25.950;2023-09-07T03:17:51;101821.53;;;21.23;59.87
20630;BME280;17386;43.846;25.950;2023-09-07T03:20:17;101819.81;;;21.22;60.01
20630;BME280;17386;43.846;25.950;2023-09-07T03:22:43;101828.88;;;21.21;60.00
20630;BME280;17386;43.846;25.950;2023-09-07T03:25:10;101837.16;;;21.18;60.01
20630;BME280;17386;43.846;25.950;2023-09-07T03:27:37;101830.25;;;21.14;60.25
20630;BME280;17386;43.846;25.950;2023-09-07T03:30:03;101838.13;;;21.17;60.06
20630;BME280;17386;43.846;25.950;2023-09-07T03:32:30;101829.06;;;21.18;60.16
20630;BME280;17386;43.846;25.950;2023-09-07T03:35:02;101844.63;;;21.14;60.14
20630;BME280;17386;43.846;25.950;2023-09-07T03:37:28;101842.69;;;21.16;60.11
20630;BME280;17386;43.846;25.950;2023-09-07T03:39:55;101841.03;;;21.14;60.18
20630;BME280;17386;43.846;25.950;2023-09-07T03:42:20;101840.63;;;21.06;60.46
20630;BME280;17386;43.846;25.950;2023-09-07T03:44:46;101847.88;;;21.05;60.46
20630;BME280;17386;43.846;25.950;2023-09-07T03:47:12;101849.53;;;21.08;60.48
20630;BME280;17386;43.846;25.950;2023-09-07T03:49:38;101858.41;;;21.10;60.47
20630;BME280;17386;43.846;25.950;2023-09-07T03:52:04;101862.66;;;21.14;60.36
20630;BME280;17386;43.846;25.950;2023-09-07T03:54:30;101865.53;;;21.11;60.31
20630;BME280;17386;43.846;25.950;2023-09-07T03:56:56;101858.41;;;21.10;60.57
20630;BME280;17386;43.846;25.950;2023-09-07T03:59:22;101865.63;;;21.09;60.63
20630;BME280;17386;43.846;25.950;2023-09-07T04:01:47;101874.59;;;21.10;60.83
20630;BME280;17386;43.846;25.950;2023-09-07T04:04:13;101869.31;;;21.08;60.73
20630;BME280;17386;43.846;25.950;2023-09-07T04:06:38;101872.88;;;21.09;60.80
20630;BME280;17386;43.846;25.950;2023-09-07T04:09:04;101874.88;;;21.05;61.24
20630;BME280;17386;43.846;25.950;2023-09-07T04:11:30;101874.88;;;21.05;61.21
20630;BME280;17386;43.846;25.950;2023-09-07T04:13:55;101874.97;;;21.03;61.41
20630;BME280;17386;43.846;25.950;2023-09-07T04:16:21;101874.41;;;20.98;61.33
20630;BME280;17386;43.846;25.950;2023-09-07T04:18:46;101881.34;;;21.02;61.93
20630;BME280;17386;43.846;25.950;2023-09-07T04:21:11;101875.19;;;21.00;62.23
20630;BME280;17386;43.846;25.950;2023-09-07T04:23:37;101882.50;;;20.98;62.05
20630;BME280;17386;43.846;25.950;2023-09-07T04:26:07;101875.97;;;21.02;62.13
20630;BME280;17386;43.846;25.950;2023-09-07T04:28:33;101877.78;;;21.02;61.97
20630;BME280;17386;43.846;25.950;2023-09-07T04:30:59;101883.09;;;21.03;62.10
20630;BME280;17386;43.846;25.950;2023-09-07T04:33:24;101879.72;;;21.00;62.11
20630;BME280;17386;43.846;25.950;2023-09-07T04:35:50;101885.59;;;21.07;62.11
20630;BME280;17386;43.846;25.950;2023-09-07T04:38:15;101883.09;;;21.03;62.14
20630;BME280;17386;43.846;25.950;2023-09-07T04:40:40;101891.09;;;21.05;62.16
20630;BME280;17386;43.846;25.950;2023-09-07T04:43:06;101887.44;;;21.06;62.27
20630;BME280;17386;43.846;25.950;2023-09-07T04:45:31;101885.59;;;21.07;62.51
20630;BME280;17386;43.846;25.950;2023-09-07T04:47:56;101886.38;;;21.09;62.38
20630;BME280;17386;43.846;25.950;2023-09-07T04:50:22;101887.75;;;21.16;62.17
20630;BME280;17386;43.846;25.950;2023-09-07T04:52:47;101893.81;;;21.19;62.14
20630;BME280;17386;43.846;25.950;2023-09-07T04:55:13;101890.13;;;21.20;62.36
20630;BME280;17386;43.846;25.950;2023-09-07T04:57:38;101896.25;;;21.24;62.17
20630;BME280;17386;43.846;25.950;2023-09-07T05:00:06;101896.88;;;21.29;62.16
20630;BME280;17386;43.846;25.950;2023-09-07T05:02:31;101908.16;;;21.36;61.95
20630;BME280;17386;43.846;25.950;2023-09-07T05:04:57;101893.41;;;21.41;61.92
20630;BME280;17386;43.846;25.950;2023-09-07T05:07:22;101898.38;;;21.47;61.72
20630;BME280;17386;43.846;25.950;2023-09-07T05:09:47;101896.00;;;21.57;61.48
20630;BME280;17386;43.846;25.950;2023-09-07T05:12:14;101896.47;;;21.64;61.19
20630;BME280;17386;43.846;25.950;2023-09-07T05:14:39;101901.28;;;21.73;61.19
20630;BME280;17386;43.846;25.950;2023-09-07T05:17:05;101901.88;;;21.78;61.04
20630;BME280;17386;43.846;25.950;2023-09-07T05:19:30;101905.16;;;21.83;60.23
20630;BME280;17386;43.846;25.950;2023-09-07T05:21:55;101902.00;;;21.89;60.22
20630;BME280;17386;43.846;25.950;2023-09-07T05:24:21;101899.31;;;21.89;60.04
20630;BME280;17386;43.846;25.950;2023-09-07T05:26:46;101899.72;;;21.97;59.92
20630;BME280;17386;43.846;25.950;2023-09-07T05:29:12;101908.94;;;22.07;59.79
20630;BME280;17386;43.846;25.950;2023-09-07T05:31:38;101905.38;;;22.21;59.25
20630;BME280;17386;43.846;25.950;2023-09-07T05:34:03;101906.41;;;22.33;58.63
20630;BME280;17386;43.846;25.950;2023-09-07T05:36:30;101910.22;;;22.43;58.38
20630;BME280;17386;43.846;25.950;2023-09-07T05:38:55;101906.63;;;22.43;57.97
20630;BME280;17386;43.846;25.950;2023-09-07T05:41:21;101914.69;;;22.44;57.96
20630;BME280;17386;43.846;25.950;2023-09-07T05:43:46;101914.06;;;22.53;57.50
20630;BME280;17386;43.846;25.950;2023-09-07T05:46:12;101916.00;;;22.51;57.26
20630;BME280;17386;43.846;25.950;2023-09-07T05:48:37;101912.97;;;22.56;57.09
20630;BME280;17386;43.846;25.950;2023-09-07T05:51:03;101918.09;;;22.60;57.24
20630;BME280;17386;43.846;25.950;2023-09-07T05:53:29;101916.69;;;22.67;56.61
20630;BME280;17386;43.846;25.950;2023-09-07T05:55:54;101919.09;;;22.72;56.14
20630;BME280;17386;43.846;25.950;2023-09-07T05:58:19;101914.63;;;22.71;56.17
20630;BME280;17386;43.846;25.950;2023-09-07T06:00:45;101917.25;;;22.73;55.96
20630;BME280;17386;43.846;25.950;2023-09-07T06:03:10;101919.44;;;22.80;56.19
20630;BME280;17386;43.846;25.950;2023-09-07T06:05:37;101924.97;;;22.79;55.84
20630;BME280;17386;43.846;25.950;2023-09-07T06:08:04;101920.06;;;22.84;55.59
20630;BME280;17386;43.846;25.950;2023-09-07T06:10:30;101920.44;;;22.92;55.48
20630;BME280;17386;43.846;25.950;2023-09-07T06:12:55;101917.09;;;22.88;55.15
20630;BME280;17386;43.846;25.950;2023-09-07T06:15:21;101921.22;;;22.94;55.21
20630;BME280;17386;43.846;25.950;2023-09-07T06:17:46;101927.09;;;23.01;55.05
20630;BME280;17386;43.846;25.950;2023-09-07T06:20:12;101927.84;;;23.03;54.62
20630;BME280;17386;43.846;25.950;2023-09-07T06:22:38;101940.66;;;23.13;54.37
20630;BME280;17386;43.846;25.950;2023-09-07T06:25:03;101929.03;;;23.11;54.62
20630;BME280;17386;43.846;25.950;2023-09-07T06:27:29;101923.19;;;23.17;54.63
20630;BME280;17386;43.846;25.950;2023-09-07T06:29:54;101925.28;;;23.27;54.47
20630;BME280;17386;43.846;25.950;2023-09-07T06:32:20;101935.47;;;23.36;53.83
20630;BME280;17386;43.846;25.950;2023-09-07T06:34:45;101921.25;;;23.45;53.46
20630;BME280;17386;43.846;25.950;2023-09-07T06:37:11;101933.50;;;23.51;53.34
20630;BME280;17386;43.846;25.950;2023-09-07T06:39:36;101936.09;;;23.52;53.06
20630;BME280;17386;43.846;25.950;2023-09-07T06:42:02;101930.34;;;23.57;53.97
20630;BME280;17386;43.846;25.950;2023-09-07T06:44:29;101937.34;;;23.61;53.59
20630;BME280;17386;43.846;25.950;2023-09-07T06:46:54;101938.72;;;23.66;53.62
20630;BME280;17386;43.846;25.950;2023-09-07T06:49:20;101944.16;;;23.66;53.19
20630;BME280;17386;43.846;25.950;2023-09-07T06:51:45;101939.50;;;23.68;53.61
20630;BME280;17386;43.846;25.950;2023-09-07T06:54:11;101936.88;;;23.67;53.22
20630;BME280;17386;43.846;25.950;2023-09-07T06:56:36;101948.28;;;23.72;52.74
20630;BME280;17386;43.846;25.950;2023-09-07T06:59:01;101939.13;;;23.86;53.07
20630;BME280;17386;43.846;25.950;2023-09-07T07:01:27;101939.09;;;23.98;52.24
20630;BME280;17386;43.846;25.950;2023-09-07T07:03:52;101930.81;;;24.13;51.83
20630;BME280;17386;43.846;25.950;2023-09-07T07:06:19;101936.56;;;24.08;51.53
20630;BME280;17386;43.846;25.950;2023-09-07T07:08:44;101933.69;;;24.22;51.61
20630;BME280;17386;43.846;25.950;2023-09-07T07:11:10;101933.69;;;24.35;51.54
20630;BME280;17386;43.846;25.950;2023-09-07T07:13:35;101918.44;;;24.45;51.66
20630;BME280;17386;43.846;25.950;2023-09-07T07:16:02;101929.75;;;24.63;50.67
20630;BME280;17386;43.846;25.950;2023-09-07T07:18:29;101929.69;;;24.76;50.45
20630;BME280;17386;43.846;25.950;2023-09-07T07:20:54;101939.63;;;24.88;50.52
20630;BME280;17386;43.846;25.950;2023-09-07T07:23:19;101941.25;;;25.02;49.52
20630;BME280;17386;43.846;25.950;2023-09-07T07:25:45;101937.09;;;25.09;48.96
20630;BME280;17386;43.846;25.950;2023-09-07T07:28:10;101936.63;;;25.15;49.10
20630;BME280;17386;43.846;25.950;2023-09-07T07:30:38;101929.38;;;25.27;48.41
20630;BME280;17386;43.846;25.950;2023-09-07T07:33:06;101927.53;;;25.27;48.29
20630;BME280;17386;43.846;25.950;2023-09-07T07:35:32;101937.06;;;25.33;47.84
20630;BME280;17386;43.846;25.950;2023-09-07T07:38:00;101933.94;;;25.37;47.23
20630;BME280;17386;43.846;25.950;2023-09-07T07:40:25;101934.72;;;25.40;47.25
20630;BME280;17386;43.846;25.950;2023-09-07T07:42:52;101927.88;;;25.45;47.64
20630;BME280;17386;43.846;25.950;2023-09-07T07:45:18;101929.63;;;25.57;47.13
20630;BME280;17386;43.846;25.950;2023-09-07T07:47:48;101929.75;;;25.56;46.85
20630;BME280;17386;43.846;25.950;2023-09-07T07:50:14;101934.22;;;25.68;47.13
20630;BME280;17386;43.846;25.950;2023-09-07T07:52:40;101926.94;;;25.80;46.59
20630;BME280;17386;43.846;25.950;2023-09-07T07:55:06;101926.94;;;25.91;46.00
20630;BME280;17386;43.846;25.950;2023-09-07T07:57:31;101934.63;;;25.75;46.10
20630;BME280;17386;43.846;25.950;2023-09-07T07:59:57;101924.72;;;25.85;46.20
20630;BME280;17386;43.846;25.950;2023-09-07T08:02:22;101923.22;;;25.92;46.14
20630;BME280;17386;43.846;25.950;2023-09-07T08:04:48;101921.13;;;25.96;46.23
20630;BME280;17386;43.846;25.950;2023-09-07T08:07:13;101920.34;;;26.05;45.91
20630;BME280;17386;43.846;25.950;2023-09-07T08:09:39;101912.44;;;26.02;45.65
20630;BME280;17386;43.846;25.950;2023-09-07T08:12:05;101924.31;;;26.12;45.79
20630;BME280;17386;43.846;25.950;2023-09-07T08:14:31;101917.25;;;26.09;46.20
20630;BME280;17386;43.846;25.950;2023-09-07T08:16:57;101915.41;;;26.10;46.11
20630;BME280;17386;43.846;25.950;2023-09-07T08:19:22;101917.84;;;26.13;46.39
20630;BME280;17386;43.846;25.950;2023-09-07T08:21:50;101920.06;;;26.19;46.65
20630;BME280;17386;43.846;25.950;2023-09-07T08:24:16;101917.84;;;26.24;46.15
20630;BME280;17386;43.846;25.950;2023-09-07T08:26:41;101913.84;;;26.28;46.58
20630;BME280;17386;43.846;25.950;2023-09-07T08:29:08;101915.81;;;26.37;46.73
20630;BME280;17386;43.846;25.950;2023-09-07T08:31:37;101905.91;;;26.48;46.45
20630;BME280;17386;43.846;25.950;2023-09-07T08:34:07;101913.56;;;26.54;46.46
20630;BME280;17386;43.846;25.950;2023-09-07T08:36:36;101909.53;;;26.69;46.20
20630;BME280;17386;43.846;25.950;2023-09-07T08:39:03;101902.78;;;26.84;46.45
20630;BME280;17386;43.846;25.950;2023-09-07T08:41:32;101903.22;;;26.89;47.52
20630;BME280;17386;43.846;25.950;2023-09-07T08:44:04;101900.66;;;27.09;47.79
20630;BME280;17386;43.846;25.950;2023-09-07T08:46:31;101900.16;;;27.24;46.71
20630;BME280;17386;43.846;25.950;2023-09-07T08:48:59;101882.94;;;27.24;47.24
20630;BME280;17386;43.846;25.950;2023-09-07T08:51:26;101884.41;;;27.28;47.34
20630;BME280;17386;43.846;25.950;2023-09-07T08:53:53;101890.66;;;27.40;47.63
20630;BME280;17386;43.846;25.950;2023-09-07T08:56:19;101887.81;;;27.51;47.51
20630;BME280;17386;43.846;25.950;2023-09-07T08:58:46;101886.16;;;27.60;46.94
20630;BME280;17386;43.846;25.950;2023-09-07T09:01:14;101883.72;;;27.66;46.80
20630;BME280;17386;43.846;25.950;2023-09-07T09:03:45;101866.75;;;27.63;46.85
20630;BME280;17386;43.846;25.950;2023-09-07T09:06:11;101871.56;;;27.49;47.10
20630;BME280;17386;43.846;25.950;2023-09-07T09:08:48;101874.75;;;27.54;47.06
20630;BME280;17386;43.846;25.950;2023-09-07T09:11:14;101865.41;;;27.57;47.05
20630;BME280;17386;43.846;25.950;2023-09-07T09:13:41;101866.47;;;27.66;46.85
20630;BME280;17386;43.846;25.950;2023-09-07T09:16:06;101871.13;;;27.75;46.72
20630;BME280;17386;43.846;25.950;2023-09-07T09:18:32;101854.91;;;27.83;47.19
20630;BME280;17386;43.846;25.950;2023-09-07T09:20:57;101859.25;;;27.95;47.07
20630;BME280;17386;43.846;25.950;2023-09-07T09:23:36;101859.13;;;28.16;45.94
20630;BME280;17386;43.846;25.950;2023-09-07T09:26:02;101853.41;;;28.29;45.50
20630;BME280;17386;43.846;25.950;2023-09-07T09:28:34;101846.09;;;28.39;45.12
20630;BME280;17386;43.846;25.950;2023-09-07T09:31:01;101846.66;;;28.52;45.35
20630;BME280;17386;43.846;25.950;2023-09-07T09:33:30;101846.78;;;28.60;44.21
20630;BME280;17386;43.846;25.950;2023-09-07T09:35:56;101839.72;;;28.68;43.80
20630;BME280;17386;43.846;25.950;2023-09-07T09:38:22;101839.72;;;28.68;43.48
20630;BME280;17386;43.846;25.950;2023-09-07T09:40:47;101834.38;;;28.85;44.24
20630;BME280;17386;43.846;25.950;2023-09-07T09:43:13;101833.69;;;28.93;43.63
20630;BME280;17386;43.846;25.950;2023-09-07T09:45:39;101824.59;;;28.93;42.83
20630;BME280;17386;43.846;25.950;2023-09-07T09:48:05;101836.13;;;28.96;42.42
20630;BME280;17386;43.846;25.950;2023-09-07T09:50:32;101838.94;;;29.14;43.08
20630;BME280;17386;43.846;25.950;2023-09-07T09:52:59;101834.84;;;29.28;42.49
20630;BME280;17386;43.846;25.950;2023-09-07T09:55:25;101826.25;;;29.50;41.70
20630;BME280;17386;43.846;25.950;2023-09-07T09:57:50;101830.28;;;29.56;41.58
20630;BME280;17386;43.846;25.950;2023-09-07T10:00:16;101815.03;;;29.53;41.62
20630;BME280;17386;43.846;25.950;2023-09-07T10:02:45;101829.00;;;29.78;39.88
20630;BME280;17386;43.846;25.950;2023-09-07T10:05:13;101822.38;;;29.98;35.92
20630;BME280;17386;43.846;25.950;2023-09-07T10:07:44;101809.41;;;30.18;37.63
20630;BME280;17386;43.846;25.950;2023-09-07T10:10:14;101821.19;;;30.28;36.29
20630;BME280;17386;43.846;25.950;2023-09-07T10:12:45;101815.75;;;30.54;34.82
20630;BME280;17386;43.846;25.950;2023-09-07T10:15:27;101806.38;;;30.83;32.01
20630;BME280;17386;43.846;25.950;2023-09-07T10:18:14;101814.06;;;31.05;32.17
20630;BME280;17386;43.846;25.950;2023-09-07T10:20:55;101810.84;;;31.10;31.09
20630;BME280;17386;43.846;25.950;2023-09-07T10:23:40;101800.38;;;31.13;30.98
20630;BME280;17386;43.846;25.950;2023-09-07T10:26:18;101803.81;;;31.15;31.34
20630;BME280;17386;43.846;25.950;2023-09-07T10:28:46;101807.75;;;31.13;32.11
20630;BME280;17386;43.846;25.950;2023-09-07T10:31:17;101804.63;;;31.08;31.19
20630;BME280;17386;43.846;25.950;2023-09-07T10:33:42;101785.38;;;30.99;31.24
20630;BME280;17386;43.846;25.950;2023-09-07T10:36:20;101799.00;;;31.09;30.90
20630;BME280;17386;43.846;25.950;2023-09-07T10:38:46;101795.50;;;30.99;30.95
20630;BME280;17386;43.846;25.950;2023-09-07T10:41:11;101792.50;;;30.84;31.06
20630;BME280;17386;43.846;25.950;2023-09-07T10:43:47;101794.91;;;30.87;31.18
20630;BME280;17386;43.846;25.950;2023-09-07T10:46:13;101792.81;;;30.81;31.35
20630;BME280;17386;43.846;25.950;2023-09-07T10:48:38;101782.41;;;30.85;31.09
20630;BME280;17386;43.846;25.950;2023-09-07T10:51:04;101782.19;;;30.78;31.16
20630;BME280;17386;43.846;25.950;2023-09-07T10:53:31;101770.56;;;30.66;31.23
20630;BME280;17386;43.846;25.950;2023-09-07T10:55:58;101768.16;;;30.63;31.69
20630;BME280;17386;43.846;25.950;2023-09-07T10:58:30;101774.88;;;30.43;32.42
20630;BME280;17386;43.846;25.950;2023-09-07T11:00:56;101761.28;;;30.59;32.79
20630;BME280;17386;43.846;25.950;2023-09-07T11:03:24;101758.22;;;30.62;31.98
20630;BME280;17386;43.846;25.950;2023-09-07T11:05:52;101755.47;;;30.62;32.51
20630;BME280;17386;43.846;25.950;2023-09-07T11:08:19;101740.81;;;30.54;32.32
20630;BME280;17386;43.846;25.950;2023-09-07T11:10:44;101743.56;;;30.54;32.86
20630;BME280;17386;43.846;25.950;2023-09-07T11:13:10;101746.59;;;30.42;33.32
20630;BME280;17386;43.846;25.950;2023-09-07T11:15:35;101745.09;;;30.48;34.11
20630;BME280;17386;43.846;25.950;2023-09-07T11:18:07;101739.50;;;30.58;34.10
20630;BME280;17386;43.846;25.950;2023-09-07T11:20:37;101739.91;;;30.45;33.36
20630;BME280;17386;43.846;25.950;2023-09-07T11:23:05;101731.91;;;30.51;33.42
20630;BME280;17386;43.846;25.950;2023-09-07T11:25:37;101736.50;;;30.43;34.01
20630;BME280;17386;43.846;25.950;2023-09-07T11:28:06;101723.00;;;30.49;34.62
20630;BME280;17386;43.846;25.950;2023-09-07T11:30:33;101721.59;;;30.45;34.89
20630;BME280;17386;43.846;25.950;2023-09-07T11:33:06;101727.13;;;30.54;35.61
20630;BME280;17386;43.846;25.950;2023-09-07T11:35:32;101720.69;;;30.63;34.82
20630;BME280;17386;43.846;25.950;2023-09-07T11:38:02;101722.22;;;30.65;34.33
20630;BME280;17386;43.846;25.950;2023-09-07T11:40:30;101726.69;;;30.66;34.21
20630;BME280;17386;43.846;25.950;2023-09-07T11:42:56;101722.94;;;30.67;33.82
20630;BME280;17386;43.846;25.950;2023-09-07T11:45:21;101717.34;;;30.69;33.70
20630;BME280;17386;43.846;25.950;2023-09-07T11:47:47;101717.78;;;30.64;34.10
20630;BME280;17386;43.846;25.950;2023-09-07T11:50:12;101719.50;;;30.65;33.71
20630;BME280;17386;43.846;25.950;2023-09-07T11:52:38;101712.69;;;30.69;33.90
20630;BME280;17386;43.846;25.950;2023-09-07T11:55:03;101710.13;;;30.68;34.14
20630;BME280;17386;43.846;25.950;2023-09-07T11:57:29;101706.50;;;30.67;33.71
20630;BME280;17386;43.846;25.950;2023-09-07T11:59:55;101700.94;;;30.59;33.71
20630;BME280;17386;43.846;25.950;2023-09-07T12:02:21;101705.72;;;30.57;33.28
20630;BME280;17386;43.846;25.950;2023-09-07T12:04:47;101703.97;;;30.48;33.49
20630;BME280;17386;43.846;25.950;2023-09-07T12:07:13;101694.88;;;30.47;33.81
20630;BME280;17386;43.846;25.950;2023-09-07T12:09:39;101707.28;;;30.60;34.20
20630;BME280;17386;43.846;25.950;2023-09-07T12:12:05;101704.88;;;30.57;33.72
20630;BME280;17386;43.846;25.950;2023-09-07T12:14:30;101688.19;;;30.68;33.43
20630;BME280;17386;43.846;25.950;2023-09-07T12:16:56;101699.59;;;30.63;33.42
20630;BME280;17386;43.846;25.950;2023-09-07T12:19:22;101693.78;;;30.66;33.44
20630;BME280;17386;43.846;25.950;2023-09-07T12:21:47;101695.91;;;30.72;33.63
20630;BME280;17386;43.846;25.950;2023-09-07T12:24:13;101692.03;;;30.83;33.25
20630;BME280;17386;43.846;25.950;2023-09-07T12:26:38;101683.63;;;30.85;33.00
20630;BME280;17386;43.846;25.950;2023-09-07T12:29:04;101693.16;;;30.72;33.15
20630;BME280;17386;43.846;25.950;2023-09-07T12:31:29;101695.22;;;30.70;33.74
20630;BME280;17386;43.846;25.950;2023-09-07T12:33:56;101693.84;;;30.74;34.31
20630;BME280;17386;43.846;25.950;2023-09-07T12:36:22;101685.47;;;30.76;34.50